Delta Virtual Airport Information Service

London Gatwick Airport

ICAO: EGKK Country: United Kingdom
Latitude: 51.148 Longitude: -0.19027
Latest Arrival : AEA1013 (1) (LEMD-EGKK) Latest Departure : AEA1014 (1) (EGKK-LEMD)


WX CaptureLIVE
Data provided by noaa.gov | Fetched at 10:10:52

METAR : EGKK 281450Z 07011KT 030V100 CAVOK 21/05 Q1032

TAF : EGKK 281056Z 2812/2918 08008KT CAVOK


Runway Data for EGKK
Data provided by openaviationdata.com

Runway ID Mag Var Hdg Length Elevation Surface ILS Freq ILS Id ILS Slope
08L -1 78° 8394 ft 196 ft Asphalt -- -- --
08R -1 78° 10352 ft 196 ft Asphalt 110.9 IGG 3
26L -1 258° 10352 ft 196 ft Asphalt 110.9 IWW 3
26R -1 258° 8394 ft 196 ft Asphalt -- -- --

London Gatwick Airport, United Kingdom
Use only for reference purposes



Not for navigational purposes.